Terminal Aerodrome Forecast
Issued by NWS

Home | Current Version | Previous Version | Text Only | Print | Product List | Glossary Off
Versions: 1 2 3 4 5 6 7 8 9 10 11 12 13 14 15 16 17 18 19 20 21 22 23

000
FTUS43 KGRB 271140
TAFATW
TAF
KATW 271140Z 2712/2812 07005KT P6SM -SHRA SCT020 OVC045
      TEMPO 2712/2714 3SM TSRA BKN020CB
     FM271400 07006KT 5SM SHRA BR OVC024
     FM271600 08007KT 4SM SHRA BR OVC007
     FM272000 01004KT 6SM BR BKN013
     FM280900 26003KT 1 1/2SM BR BKN008=

USA.gov is the U.S. government's official web portal to all federal, state and local government web resources and services.